sensor_id;sensor_type;location;lat;lon;timestamp;P1;P2;P0
26720;PMS1003;15950;51.112;6.966;2023-11-22T00:00:21;016;011;
26720;PMS1003;15950;51.112;6.966;2023-11-22T00:03:21;016;011;
26720;PMS1003;15950;51.112;6.966;2023-11-22T00:06:21;014;010;
26720;PMS1003;15950;51.112;6.966;2023-11-22T00:09:21;013;009;
26720;PMS1003;15950;51.112;6.966;2023-11-22T00:12:21;017;012;
26720;PMS1003;15950;51.112;6.966;2023-11-22T00:15:21;017;012;
26720;PMS1003;15950;51.112;6.966;2023-11-22T00:18:21;013;011;
26720;PMS1003;15950;51.112;6.966;2023-11-22T00:21:21;013;009;
26720;PMS1003;15950;51.112;6.966;2023-11-22T00:24:21;016;011;
26720;PMS1003;15950;51.112;6.966;2023-11-22T00:27:21;014;011;
26720;PMS1003;15950;51.112;6.966;2023-11-22T00:30:21;013;009;
26720;PMS1003;15950;51.112;6.966;2023-11-22T00:33:21;014;010;
26720;PMS1003;15950;51.112;6.966;2023-11-22T00:36:21;014;010;
26720;PMS1003;15950;51.112;6.966;2023-11-22T00:39:21;017;014;
26720;PMS1003;15950;51.112;6.966;2023-11-22T00:42:21;010;008;
26720;PMS1003;15950;51.112;6.966;2023-11-22T00:45:21;012;008;
26720;PMS1003;15950;51.112;6.966;2023-11-22T00:48:21;013;009;
26720;PMS1003;15950;51.112;6.966;2023-11-22T00:51:24;012;008;
26720;PMS1003;15950;51.112;6.966;2023-11-22T00:54:21;010;007;
26720;PMS1003;15950;51.112;6.966;2023-11-22T00:57:21;012;008;
26720;PMS1003;15950;51.112;6.966;2023-11-22T01:00:21;010;007;
26720;PMS1003;15950;51.112;6.966;2023-11-22T01:03:21;012;009;
26720;PMS1003;15950;51.112;6.966;2023-11-22T01:06:21;010;007;
26720;PMS1003;15950;51.112;6.966;2023-11-22T01:09:21;008;007;
26720;PMS1003;15950;51.112;6.966;2023-11-22T01:12:21;010;007;
26720;PMS1003;15950;51.112;6.966;2023-11-22T01:15:21;012;008;
26720;PMS1003;15950;51.112;6.966;2023-11-22T01:18:21;010;007;
26720;PMS1003;15950;51.112;6.966;2023-11-22T01:21:21;010;009;
26720;PMS1003;15950;51.112;6.966;2023-11-22T01:24:21;010;007;
26720;PMS1003;15950;51.112;6.966;2023-11-22T01:27:21;009;008;
26720;PMS1003;15950;51.112;6.966;2023-11-22T01:30:21;010;007;
26720;PMS1003;15950;51.112;6.966;2023-11-22T01:33:21;011;009;
26720;PMS1003;15950;51.112;6.966;2023-11-22T01:36:21;008;006;
26720;PMS1003;15950;51.112;6.966;2023-11-22T01:39:21;009;006;
26720;PMS1003;15950;51.112;6.966;2023-11-22T01:42:21;014;011;
26720;PMS1003;15950;51.112;6.966;2023-11-22T01:45:21;010;007;
26720;PMS1003;15950;51.112;6.966;2023-11-22T01:48:21;009;006;
26720;PMS1003;15950;51.112;6.966;2023-11-22T01:51:21;012;009;
26720;PMS1003;15950;51.112;6.966;2023-11-22T01:54:21;009;006;
26720;PMS1003;15950;51.112;6.966;2023-11-22T01:57:21;012;008;
26720;PMS1003;15950;51.112;6.966;2023-11-22T02:00:21;010;007;
26720;PMS1003;15950;51.112;6.966;2023-11-22T02:03:21;014;010;
26720;PMS1003;15950;51.112;6.966;2023-11-22T02:06:21;010;007;
26720;PMS1003;15950;51.112;6.966;2023-11-22T02:09:21;010;007;
26720;PMS1003;15950;51.112;6.966;2023-11-22T02:12:21;009;006;
26720;PMS1003;15950;51.112;6.966;2023-11-22T02:15:21;012;008;
26720;PMS1003;15950;51.112;6.966;2023-11-22T02:18:22;016;014;
26720;PMS1003;15950;51.112;6.966;2023-11-22T02:21:21;009;006;
26720;PMS1003;15950;51.112;6.966;2023-11-22T02:24:21;016;011;
26720;PMS1003;15950;51.112;6.966;2023-11-22T02:27:21;014;010;
26720;PMS1003;15950;51.112;6.966;2023-11-22T02:30:21;013;009;
26720;PMS1003;15950;51.112;6.966;2023-11-22T02:33:21;011;008;
26720;PMS1003;15950;51.112;6.966;2023-11-22T02:36:22;010;007;
26720;PMS1003;15950;51.112;6.966;2023-11-22T02:39:21;012;008;
26720;PMS1003;15950;51.112;6.966;2023-11-22T02:42:21;014;012;
26720;PMS1003;15950;51.112;6.966;2023-11-22T02:45:25;012;010;
26720;PMS1003;15950;51.112;6.966;2023-11-22T02:48:21;013;009;
26720;PMS1003;15950;51.112;6.966;2023-11-22T02:51:21;013;009;
26720;PMS1003;15950;51.112;6.966;2023-11-22T02:54:21;014;010;
26720;PMS1003;15950;51.112;6.966;2023-11-22T02:57:21;012;008;
26720;PMS1003;15950;51.112;6.966;2023-11-22T03:00:21;013;009;
26720;PMS1003;15950;51.112;6.966;2023-11-22T03:03:21;010;007;
26720;PMS1003;15950;51.112;6.966;2023-11-22T03:06:21;014;010;
26720;PMS1003;15950;51.112;6.966;2023-11-22T03:09:21;013;012;
26720;PMS1003;15950;51.112;6.966;2023-11-22T03:12:21;014;011;
26720;PMS1003;15950;51.112;6.966;2023-11-22T03:15:21;011;009;
26720;PMS1003;15950;51.112;6.966;2023-11-22T03:18:21;013;009;
26720;PMS1003;15950;51.112;6.966;2023-11-22T03:21:21;012;008;
26720;PMS1003;15950;51.112;6.966;2023-11-22T03:24:21;012;012;
26720;PMS1003;15950;51.112;6.966;2023-11-22T03:27:21;013;009;
26720;PMS1003;15950;51.112;6.966;2023-11-22T03:30:21;016;011;
26720;PMS1003;15950;51.112;6.966;2023-11-22T03:33:21;013;009;
26720;PMS1003;15950;51.112;6.966;2023-11-22T03:36:21;011;008;
26720;PMS1003;15950;51.112;6.966;2023-11-22T03:39:21;014;010;
26720;PMS1003;15950;51.112;6.966;2023-11-22T03:42:21;012;010;
26720;PMS1003;15950;51.112;6.966;2023-11-22T03:45:21;012;008;
26720;PMS1003;15950;51.112;6.966;2023-11-22T03:48:21;012;010;
26720;PMS1003;15950;51.112;6.966;2023-11-22T03:51:21;017;012;
26720;PMS1003;15950;51.112;6.966;2023-11-22T03:54:21;012;009;
26720;PMS1003;15950;51.112;6.966;2023-11-22T03:57:21;017;012;
26720;PMS1003;15950;51.112;6.966;2023-11-22T04:00:21;012;008;
26720;PMS1003;15950;51.112;6.966;2023-11-22T04:03:21;010;007;
26720;PMS1003;15950;51.112;6.966;2023-11-22T04:06:21;013;009;
26720;PMS1003;15950;51.112;6.966;2023-11-22T04:09:21;012;008;
26720;PMS1003;15950;51.112;6.966;2023-11-22T04:12:21;013;009;
26720;PMS1003;15950;51.112;6.966;2023-11-22T04:15:21;014;012;
26720;PMS1003;15950;51.112;6.966;2023-11-22T04:18:21;013;009;
26720;PMS1003;15950;51.112;6.966;2023-11-22T04:21:21;012;009;
26720;PMS1003;15950;51.112;6.966;2023-11-22T04:24:21;014;010;
26720;PMS1003;15950;51.112;6.966;2023-11-22T04:27:21;010;007;
26720;PMS1003;15950;51.112;6.966;2023-11-22T04:30:21;012;009;
26720;PMS1003;15950;51.112;6.966;2023-11-22T04:33:21;013;009;
26720;PMS1003;15950;51.112;6.966;2023-11-22T04:36:21;015;013;
26720;PMS1003;15950;51.112;6.966;2023-11-22T04:39:21;010;007;
26720;PMS1003;15950;51.112;6.966;2023-11-22T04:42:21;013;009;
26720;PMS1003;15950;51.112;6.966;2023-11-22T04:45:21;017;012;
26720;PMS1003;15950;51.112;6.966;2023-11-22T04:48:21;014;012;
26720;PMS1003;15950;51.112;6.966;2023-11-22T04:51:21;010;007;
26720;PMS1003;15950;51.112;6.966;2023-11-22T04:54:21;016;011;
26720;PMS1003;15950;51.112;6.966;2023-11-22T04:57:21;014;012;
26720;PMS1003;15950;51.112;6.966;2023-11-22T05:00:21;016;011;
26720;PMS1003;15950;51.112;6.966;2023-11-22T05:03:21;013;009;
26720;PMS1003;15950;51.112;6.966;2023-11-22T05:06:21;010;007;
26720;PMS1003;15950;51.112;6.966;2023-11-22T05:09:21;010;007;
26720;PMS1003;15950;51.112;6.966;2023-11-22T05:12:21;008;008;
26720;PMS1003;15950;51.112;6.966;2023-11-22T05:15:21;011;008;
26720;PMS1003;15950;51.112;6.966;2023-11-22T05:18:21;011;009;
26720;PMS1003;15950;51.112;6.966;2023-11-22T05:21:21;010;009;
26720;PMS1003;15950;51.112;6.966;2023-11-22T05:24:21;008;007;
26720;PMS1003;15950;51.112;6.966;2023-11-22T05:27:21;008;006;
26720;PMS1003;15950;51.112;6.966;2023-11-22T05:30:21;005;003;
26720;PMS1003;15950;51.112;6.966;2023-11-22T05:33:21;009;006;
26720;PMS1003;15950;51.112;6.966;2023-11-22T05:36:21;008;007;
26720;PMS1003;15950;51.112;6.966;2023-11-22T05:39:21;004;003;
26720;PMS1003;15950;51.112;6.966;2023-11-22T05:42:21;004;003;
26720;PMS1003;15950;51.112;6.966;2023-11-22T05:45:21;005;003;
26720;PMS1003;15950;51.112;6.966;2023-11-22T05:48:21;005;003;
26720;PMS1003;15950;51.112;6.966;2023-11-22T05:51:21;007;005;
26720;PMS1003;15950;51.112;6.966;2023-11-22T05:54:21;006;004;
26720;PMS1003;15950;51.112;6.966;2023-11-22T05:57:21;005;003;
26720;PMS1003;15950;51.112;6.966;2023-11-22T06:00:21;010;008;
26720;PMS1003;15950;51.112;6.966;2023-11-22T06:03:21;003;002;
26720;PMS1003;15950;51.112;6.966;2023-11-22T06:06:21;006;004;
26720;PMS1003;15950;51.112;6.966;2023-11-22T06:09:21;005;004;
26720;PMS1003;15950;51.112;6.966;2023-11-22T06:12:21;007;005;
26720;PMS1003;15950;51.112;6.966;2023-11-22T06:15:21;006;005;
26720;PMS1003;15950;51.112;6.966;2023-11-22T06:18:21;008;007;
26720;PMS1003;15950;51.112;6.966;2023-11-22T06:21:21;011;008;
26720;PMS1003;15950;51.112;6.966;2023-11-22T06:24:21;005;003;
26720;PMS1003;15950;51.112;6.966;2023-11-22T06:27:21;008;007;
26720;PMS1003;15950;51.112;6.966;2023-11-22T06:30:21;010;008;
26720;PMS1003;15950;51.112;6.966;2023-11-22T06:33:21;014;010;
26720;PMS1003;15950;51.112;6.966;2023-11-22T06:36:21;010;008;
26720;PMS1003;15950;51.112;6.966;2023-11-22T06:39:21;007;005;
26720;PMS1003;15950;51.112;6.966;2023-11-22T06:42:21;006;004;
26720;PMS1003;15950;51.112;6.966;2023-11-22T06:45:21;010;007;
26720;PMS1003;15950;51.112;6.966;2023-11-22T06:48:21;010;009;
26720;PMS1003;15950;51.112;6.966;2023-11-22T06:51:21;007;005;
26720;PMS1003;15950;51.112;6.966;2023-11-22T06:54:21;005;003;
26720;PMS1003;15950;51.112;6.966;2023-11-22T06:57:21;006;004;
26720;PMS1003;15950;51.112;6.966;2023-11-22T07:00:21;006;004;
26720;PMS1003;15950;51.112;6.966;2023-11-22T07:03:21;009;008;
26720;PMS1003;15950;51.112;6.966;2023-11-22T07:06:21;010;007;
26720;PMS1003;15950;51.112;6.966;2023-11-22T07:09:21;005;003;
26720;PMS1003;15950;51.112;6.966;2023-11-22T07:12:21;010;007;
26720;PMS1003;15950;51.112;6.966;2023-11-22T07:15:21;006;004;
26720;PMS1003;15950;51.112;6.966;2023-11-22T07:18:21;010;007;
26720;PMS1003;15950;51.112;6.966;2023-11-22T07:21:21;012;008;
26720;PMS1003;15950;51.112;6.966;2023-11-22T07:24:21;007;005;
26720;PMS1003;15950;51.112;6.966;2023-11-22T07:27:21;009;006;
26720;PMS1003;15950;51.112;6.966;2023-11-22T07:30:21;009;006;
26720;PMS1003;15950;51.112;6.966;2023-11-22T07:33:21;010;007;
26720;PMS1003;15950;51.112;6.966;2023-11-22T07:36:21;009;006;
26720;PMS1003;15950;51.112;6.966;2023-11-22T07:39:21;010;007;
26720;PMS1003;15950;51.112;6.966;2023-11-22T07:42:21;010;007;
26720;PMS1003;15950;51.112;6.966;2023-11-22T07:45:21;010;007;
26720;PMS1003;15950;51.112;6.966;2023-11-22T07:48:21;007;005;
26720;PMS1003;15950;51.112;6.966;2023-11-22T07:51:21;016;011;
26720;PMS1003;15950;51.112;6.966;2023-11-22T07:54:21;014;010;
26720;PMS1003;15950;51.112;6.966;2023-11-22T07:57:21;013;009;
26720;PMS1003;15950;51.112;6.966;2023-11-22T08:00:21;012;008;
26720;PMS1003;15950;51.112;6.966;2023-11-22T08:03:21;010;007;
26720;PMS1003;15950;51.112;6.966;2023-11-22T08:06:21;009;007;
26720;PMS1003;15950;51.112;6.966;2023-11-22T08:09:21;007;005;
26720;PMS1003;15950;51.112;6.966;2023-11-22T08:12:21;007;005;
26720;PMS1003;15950;51.112;6.966;2023-11-22T08:15:21;009;006;
26720;PMS1003;15950;51.112;6.966;2023-11-22T08:18:21;011;008;
26720;PMS1003;15950;51.112;6.966;2023-11-22T08:21:21;010;007;
26720;PMS1003;15950;51.112;6.966;2023-11-22T08:24:21;010;008;
26720;PMS1003;15950;51.112;6.966;2023-11-22T08:27:21;011;008;
26720;PMS1003;15950;51.112;6.966;2023-11-22T08:30:21;013;009;
26720;PMS1003;15950;51.112;6.966;2023-11-22T08:33:21;017;012;
26720;PMS1003;15950;51.112;6.966;2023-11-22T08:36:21;012;009;
26720;PMS1003;15950;51.112;6.966;2023-11-22T08:39:21;012;008;
26720;PMS1003;15950;51.112;6.966;2023-11-22T08:42:21;006;004;
26720;PMS1003;15950;51.112;6.966;2023-11-22T08:45:21;009;006;
26720;PMS1003;15950;51.112;6.966;2023-11-22T08:48:21;006;005;
26720;PMS1003;15950;51.112;6.966;2023-11-22T08:51:21;005;003;
26720;PMS1003;15950;51.112;6.966;2023-11-22T08:54:21;008;006;
26720;PMS1003;15950;51.112;6.966;2023-11-22T08:57:21;006;004;
26720;PMS1003;15950;51.112;6.966;2023-11-22T09:00:21;006;005;
26720;PMS1003;15950;51.112;6.966;2023-11-22T09:03:21;006;004;
26720;PMS1003;15950;51.112;6.966;2023-11-22T09:06:21;007;005;
26720;PMS1003;15950;51.112;6.966;2023-11-22T09:09:21;004;004;
26720;PMS1003;15950;51.112;6.966;2023-11-22T09:12:21;005;003;
26720;PMS1003;15950;51.112;6.966;2023-11-22T09:15:21;009;006;
26720;PMS1003;15950;51.112;6.966;2023-11-22T09:18:21;013;009;
26720;PMS1003;15950;51.112;6.966;2023-11-22T09:21:21;009;006;
26720;PMS1003;15950;51.112;6.966;2023-11-22T09:24:21;009;008;
26720;PMS1003;15950;51.112;6.966;2023-11-22T09:27:21;013;009;
26720;PMS1003;15950;51.112;6.966;2023-11-22T09:30:21;007;005;
26720;PMS1003;15950;51.112;6.966;2023-11-22T09:33:21;007;005;
26720;PMS1003;15950;51.112;6.966;2023-11-22T09:36:21;010;007;
26720;PMS1003;15950;51.112;6.966;2023-11-22T09:39:21;006;004;
26720;PMS1003;15950;51.112;6.966;2023-11-22T09:42:21;005;003;
26720;PMS1003;15950;51.112;6.966;2023-11-22T09:45:21;010;007;
26720;PMS1003;15950;51.112;6.966;2023-11-22T09:48:21;004;003;
26720;PMS1003;15950;51.112;6.966;2023-11-22T09:51:23;004;003;
26720;PMS1003;15950;51.112;6.966;2023-11-22T09:54:21;003;002;
26720;PMS1003;15950;51.112;6.966;2023-11-22T09:57:21;005;003;
26720;PMS1003;15950;51.112;6.966;2023-11-22T10:00:21;005;003;
26720;PMS1003;15950;51.112;6.966;2023-11-22T10:03:21;005;003;
26720;PMS1003;15950;51.112;6.966;2023-11-22T10:06:21;003;003;
26720;PMS1003;15950;51.112;6.966;2023-11-22T10:09:21;003;002;
26720;PMS1003;15950;51.112;6.966;2023-11-22T10:12:21;006;005;
26720;PMS1003;15950;51.112;6.966;2023-11-22T10:15:21;006;004;
26720;PMS1003;15950;51.112;6.966;2023-11-22T10:18:21;005;003;
26720;PMS1003;15950;51.112;6.966;2023-11-22T10:24:21;013;010;
26720;PMS1003;15950;51.112;6.966;2023-11-22T10:27:21;006;004;
26720;PMS1003;15950;51.112;6.966;2023-11-22T10:30:21;003;002;
26720;PMS1003;15950;51.112;6.966;2023-11-22T10:33:21;009;006;
26720;PMS1003;15950;51.112;6.966;2023-11-22T10:36:21;006;004;
26720;PMS1003;15950;51.112;6.966;2023-11-22T10:39:21;007;006;
26720;PMS1003;15950;51.112;6.966;2023-11-22T10:42:21;003;002;
26720;PMS1003;15950;51.112;6.966;2023-11-22T10:45:21;003;002;
26720;PMS1003;15950;51.112;6.966;2023-11-22T10:48:21;002;001;
26720;PMS1003;15950;51.112;6.966;2023-11-22T10:51:21;006;004;
26720;PMS1003;15950;51.112;6.966;2023-11-22T10:54:21;002;001;
26720;PMS1003;15950;51.112;6.966;2023-11-22T10:57:22;005;003;
26720;PMS1003;15950;51.112;6.966;2023-11-22T11:00:21;002;001;
26720;PMS1003;15950;51.112;6.966;2023-11-22T11:03:21;005;003;
26720;PMS1003;15950;51.112;6.966;2023-11-22T11:06:23;003;002;
26720;PMS1003;15950;51.112;6.966;2023-11-22T11:09:21;005;004;
26720;PMS1003;15950;51.112;6.966;2023-11-22T11:12:21;003;002;
26720;PMS1003;15950;51.112;6.966;2023-11-22T11:15:21;000;000;
26720;PMS1003;15950;51.112;6.966;2023-11-22T11:18:21;005;003;
26720;PMS1003;15950;51.112;6.966;2023-11-22T11:21:21;002;002;
26720;PMS1003;15950;51.112;6.966;2023-11-22T11:24:21;002;001;
26720;PMS1003;15950;51.112;6.966;2023-11-22T11:27:21;002;001;
26720;PMS1003;15950;51.112;6.966;2023-11-22T11:30:43;002;001;
26720;PMS1003;15950;51.112;6.966;2023-11-22T11:42:21;002;001;
26720;PMS1003;15950;51.112;6.966;2023-11-22T11:45:21;003;002;
26720;PMS1003;15950;51.112;6.966;2023-11-22T11:48:21;000;000;
26720;PMS1003;15950;51.112;6.966;2023-11-22T11:51:22;002;001;
26720;PMS1003;15950;51.112;6.966;2023-11-22T11:54:21;004;003;
26720;PMS1003;15950;51.112;6.966;2023-11-22T11:57:21;005;003;
26720;PMS1003;15950;51.112;6.966;2023-11-22T12:00:21;002;001;
26720;PMS1003;15950;51.112;6.966;2023-11-22T12:03:21;003;003;
26720;PMS1003;15950;51.112;6.966;2023-11-22T12:06:21;001;001;
26720;PMS1003;15950;51.112;6.966;2023-11-22T12:12:21;002;001;
26720;PMS1003;15950;51.112;6.966;2023-11-22T12:15:21;000;000;
26720;PMS1003;15950;51.112;6.966;2023-11-22T12:18:21;000;000;
26720;PMS1003;15950;51.112;6.966;2023-11-22T12:21:21;003;002;
26720;PMS1003;15950;51.112;6.966;2023-11-22T12:24:21;005;003;
26720;PMS1003;15950;51.112;6.966;2023-11-22T12:27:21;000;000;
26720;PMS1003;15950;51.112;6.966;2023-11-22T12:33:21;000;000;
26720;PMS1003;15950;51.112;6.966;2023-11-22T12:36:21;000;000;
26720;PMS1003;15950;51.112;6.966;2023-11-22T12:39:21;003;002;
26720;PMS1003;15950;51.112;6.966;2023-11-22T12:42:21;000;000;
26720;PMS1003;15950;51.112;6.966;2023-11-22T12:45:21;000;000;
26720;PMS1003;15950;51.112;6.966;2023-11-22T12:48:21;000;000;
26720;PMS1003;15950;51.112;6.966;2023-11-22T12:51:21;005;003;
26720;PMS1003;15950;51.112;6.966;2023-11-22T12:54:21;002;001;
26720;PMS1003;15950;51.112;6.966;2023-11-22T12:57:21;002;001;
26720;PMS1003;15950;51.112;6.966;2023-11-22T13:00:21;002;001;
26720;PMS1003;15950;51.112;6.966;2023-11-22T13:03:21;003;003;
26720;PMS1003;15950;51.112;6.966;2023-11-22T13:06:21;001;001;
26720;PMS1003;15950;51.112;6.966;2023-11-22T13:09:21;002;002;
26720;PMS1003;15950;51.112;6.966;2023-11-22T13:12:21;006;004;
26720;PMS1003;15950;51.112;6.966;2023-11-22T13:15:21;003;002;
26720;PMS1003;15950;51.112;6.966;2023-11-22T13:18:21;000;000;
26720;PMS1003;15950;51.112;6.966;2023-11-22T13:21:21;000;000;
26720;PMS1003;15950;51.112;6.966;2023-11-22T13:24:21;000;000;
26720;PMS1003;15950;51.112;6.966;2023-11-22T13:27:21;001;001;
26720;PMS1003;15950;51.112;6.966;2023-11-22T13:30:21;000;000;
26720;PMS1003;15950;51.112;6.966;2023-11-22T13:33:21;002;001;
26720;PMS1003;15950;51.112;6.966;2023-11-22T13:36:21;000;000;
26720;PMS1003;15950;51.112;6.966;2023-11-22T13:39:21;002;001;
26720;PMS1003;15950;51.112;6.966;2023-11-22T13:42:21;002;002;
26720;PMS1003;15950;51.112;6.966;2023-11-22T13:45:21;000;000;
26720;PMS1003;15950;51.112;6.966;2023-11-22T13:48:21;000;000;
26720;PMS1003;15950;51.112;6.966;2023-11-22T13:51:21;000;000;
26720;PMS1003;15950;51.112;6.966;2023-11-22T13:54:21;002;001;
26720;PMS1003;15950;51.112;6.966;2023-11-22T13:57:21;000;000;
26720;PMS1003;15950;51.112;6.966;2023-11-22T14:00:21;000;000;
26720;PMS1003;15950;51.112;6.966;2023-11-22T14:03:21;000;000;
26720;PMS1003;15950;51.112;6.966;2023-11-22T14:06:21;003;002;
26720;PMS1003;15950;51.112;6.966;2023-11-22T14:09:21;002;001;
26720;PMS1003;15950;51.112;6.966;2023-11-22T14:12:21;000;000;
26720;PMS1003;15950;51.112;6.966;2023-11-22T14:15:21;000;000;
26720;PMS1003;15950;51.112;6.966;2023-11-22T14:18:21;003;002;
26720;PMS1003;15950;51.112;6.966;2023-11-22T14:21:21;002;001;
26720;PMS1003;15950;51.112;6.966;2023-11-22T14:24:21;000;000;
26720;PMS1003;15950;51.112;6.966;2023-11-22T14:27:21;002;001;
26720;PMS1003;15950;51.112;6.966;2023-11-22T14:30:21;000;000;
26720;PMS1003;15950;51.112;6.966;2023-11-22T14:33:21;002;002;
26720;PMS1003;15950;51.112;6.966;2023-11-22T14:36:21;003;002;
26720;PMS1003;15950;51.112;6.966;2023-11-22T14:39:21;000;000;
26720;PMS1003;15950;51.112;6.966;2023-11-22T14:42:21;001;001;
26720;PMS1003;15950;51.112;6.966;2023-11-22T14:45:21;000;000;
26720;PMS1003;15950;51.112;6.966;2023-11-22T14:48:21;002;002;
26720;PMS1003;15950;51.112;6.966;2023-11-22T14:51:21;000;000;
26720;PMS1003;15950;51.112;6.966;2023-11-22T14:54:21;002;001;
26720;PMS1003;15950;51.112;6.966;2023-11-22T14:57:21;002;001;
26720;PMS1003;15950;51.112;6.966;2023-11-22T15:00:21;003;002;
26720;PMS1003;15950;51.112;6.966;2023-11-22T15:03:21;002;001;
26720;PMS1003;15950;51.112;6.966;2023-11-22T15:06:21;002;001;
26720;PMS1003;15950;51.112;6.966;2023-11-22T15:09:21;001;001;
26720;PMS1003;15950;51.112;6.966;2023-11-22T15:12:21;006;004;
26720;PMS1003;15950;51.112;6.966;2023-11-22T15:15:21;003;002;
26720;PMS1003;15950;51.112;6.966;2023-11-22T15:18:21;002;001;
26720;PMS1003;15950;51.112;6.966;2023-11-22T15:21:20;002;001;
26720;PMS1003;15950;51.112;6.966;2023-11-22T15:24:20;000;000;
26720;PMS1003;15950;51.112;6.966;2023-11-22T15:27:20;002;001;
26720;PMS1003;15950;51.112;6.966;2023-11-22T15:30:20;002;001;
26720;PMS1003;15950;51.112;6.966;2023-11-22T15:33:20;004;003;
26720;PMS1003;15950;51.112;6.966;2023-11-22T15:36:20;000;000;
26720;PMS1003;15950;51.112;6.966;2023-11-22T15:39:20;001;001;
26720;PMS1003;15950;51.112;6.966;2023-11-22T15:42:21;005;004;
26720;PMS1003;15950;51.112;6.966;2023-11-22T15:45:20;002;002;
26720;PMS1003;15950;51.112;6.966;2023-11-22T15:48:21;005;003;
26720;PMS1003;15950;51.112;6.966;2023-11-22T15:51:20;004;003;
26720;PMS1003;15950;51.112;6.966;2023-11-22T15:54:20;006;005;
26720;PMS1003;15950;51.112;6.966;2023-11-22T15:57:20;005;004;
26720;PMS1003;15950;51.112;6.966;2023-11-22T16:00:20;006;004;
26720;PMS1003;15950;51.112;6.966;2023-11-22T16:03:20;005;004;
26720;PMS1003;15950;51.112;6.966;2023-11-22T16:06:21;009;006;
26720;PMS1003;15950;51.112;6.966;2023-11-22T16:09:20;006;004;
26720;PMS1003;15950;51.112;6.966;2023-11-22T16:12:20;006;004;
26720;PMS1003;15950;51.112;6.966;2023-11-22T16:15:20;007;005;
26720;PMS1003;15950;51.112;6.966;2023-11-22T16:18:20;006;005;
26720;PMS1003;15950;51.112;6.966;2023-11-22T16:21:20;009;006;
26720;PMS1003;15950;51.112;6.966;2023-11-22T16:24:20;013;009;
26720;PMS1003;15950;51.112;6.966;2023-11-22T16:27:20;006;004;
26720;PMS1003;15950;51.112;6.966;2023-11-22T16:30:21;008;006;
26720;PMS1003;15950;51.112;6.966;2023-11-22T16:33:20;006;005;
26720;PMS1003;15950;51.112;6.966;2023-11-22T16:36:20;007;005;
26720;PMS1003;15950;51.112;6.966;2023-11-22T16:39:20;009;008;
26720;PMS1003;15950;51.112;6.966;2023-11-22T16:42:21;007;006;
26720;PMS1003;15950;51.112;6.966;2023-11-22T16:45:20;006;004;
26720;PMS1003;15950;51.112;6.966;2023-11-22T16:48:20;006;004;
26720;PMS1003;15950;51.112;6.966;2023-11-22T16:51:21;007;005;
26720;PMS1003;15950;51.112;6.966;2023-11-22T16:54:20;005;004;
26720;PMS1003;15950;51.112;6.966;2023-11-22T16:57:20;007;005;
26720;PMS1003;15950;51.112;6.966;2023-11-22T17:00:20;006;004;
26720;PMS1003;15950;51.112;6.966;2023-11-22T17:03:20;007;005;
26720;PMS1003;15950;51.112;6.966;2023-11-22T17:06:21;007;005;
26720;PMS1003;15950;51.112;6.966;2023-11-22T17:09:20;006;004;
26720;PMS1003;15950;51.112;6.966;2023-11-22T17:12:20;012;008;
26720;PMS1003;15950;51.112;6.966;2023-11-22T17:15:20;007;005;
26720;PMS1003;15950;51.112;6.966;2023-11-22T17:18:21;010;007;
26720;PMS1003;15950;51.112;6.966;2023-11-22T17:21:20;007;005;
26720;PMS1003;15950;51.112;6.966;2023-11-22T17:24:20;012;008;
26720;PMS1003;15950;51.112;6.966;2023-11-22T17:27:20;009;006;
26720;PMS1003;15950;51.112;6.966;2023-11-22T17:30:20;007;005;
26720;PMS1003;15950;51.112;6.966;2023-11-22T17:33:20;005;004;
26720;PMS1003;15950;51.112;6.966;2023-11-22T17:36:20;009;006;
26720;PMS1003;15950;51.112;6.966;2023-11-22T17:39:20;008;006;
26720;PMS1003;15950;51.112;6.966;2023-11-22T17:42:20;005;003;
26720;PMS1003;15950;51.112;6.966;2023-11-22T17:45:20;013;009;
26720;PMS1003;15950;51.112;6.966;2023-11-22T17:48:20;012;008;
26720;PMS1003;15950;51.112;6.966;2023-11-22T17:51:20;013;009;
26720;PMS1003;15950;51.112;6.966;2023-11-22T17:54:20;013;009;
26720;PMS1003;15950;51.112;6.966;2023-11-22T17:57:20;010;007;
26720;PMS1003;15950;51.112;6.966;2023-11-22T18:00:20;007;005;
26720;PMS1003;15950;51.112;6.966;2023-11-22T18:03:20;007;005;
26720;PMS1003;15950;51.112;6.966;2023-11-22T18:06:20;010;007;
26720;PMS1003;15950;51.112;6.966;2023-11-22T18:09:20;011;009;
26720;PMS1003;15950;51.112;6.966;2023-11-22T18:12:20;010;007;
26720;PMS1003;15950;51.112;6.966;2023-11-22T18:15:20;004;003;
26720;PMS1003;15950;51.112;6.966;2023-11-22T18:18:20;007;005;
26720;PMS1003;15950;51.112;6.966;2023-11-22T18:21:20;008;006;
26720;PMS1003;15950;51.112;6.966;2023-11-22T18:24:20;007;005;
26720;PMS1003;15950;51.112;6.966;2023-11-22T18:27:20;012;010;
26720;PMS1003;15950;51.112;6.966;2023-11-22T18:30:20;007;005;
26720;PMS1003;15950;51.112;6.966;2023-11-22T18:33:20;008;007;
26720;PMS1003;15950;51.112;6.966;2023-11-22T18:36:20;010;007;
26720;PMS1003;15950;51.112;6.966;2023-11-22T18:39:20;010;007;
26720;PMS1003;15950;51.112;6.966;2023-11-22T18:42:20;013;012;
26720;PMS1003;15950;51.112;6.966;2023-11-22T18:45:20;008;006;
26720;PMS1003;15950;51.112;6.966;2023-11-22T18:48:20;008;007;
26720;PMS1003;15950;51.112;6.966;2023-11-22T18:51:20;007;005;
26720;PMS1003;15950;51.112;6.966;2023-11-22T18:54:20;008;006;
26720;PMS1003;15950;51.112;6.966;2023-11-22T18:57:20;018;016;
26720;PMS1003;15950;51.112;6.966;2023-11-22T19:00:20;019;016;
26720;PMS1003;15950;51.112;6.966;2023-11-22T19:03:20;037;028;
26720;PMS1003;15950;51.112;6.966;2023-11-22T19:06:20;020;015;
26720;PMS1003;15950;51.112;6.966;2023-11-22T19:09:20;019;015;
26720;PMS1003;15950;51.112;6.966;2023-11-22T19:12:20;019;014;
26720;PMS1003;15950;51.112;6.966;2023-11-22T19:15:20;017;014;
26720;PMS1003;15950;51.112;6.966;2023-11-22T19:18:20;012;009;
26720;PMS1003;15950;51.112;6.966;2023-11-22T19:21:21;009;008;
26720;PMS1003;15950;51.112;6.966;2023-11-22T19:24:20;008;006;
26720;PMS1003;15950;51.112;6.966;2023-11-22T19:27:20;014;011;
26720;PMS1003;15950;51.112;6.966;2023-11-22T19:30:20;013;009;
26720;PMS1003;15950;51.112;6.966;2023-11-22T19:33:20;007;005;